createdAt,value
2023-02-17T00:01:29.489Z,102087.59
2023-02-17T00:03:56.889Z,102084.91
2023-02-17T00:06:26.500Z,102086.69
2023-02-17T00:08:53.824Z,102090.22
2023-02-17T00:11:20.305Z,102081.44
2023-02-17T00:13:46.987Z,102087.59
2023-02-17T00:16:18.443Z,102083.16
2023-02-17T00:18:45.522Z,102080.53
2023-02-17T00:21:20.970Z,102071.78
2023-02-17T00:23:48.611Z,102070.06
2023-02-17T00:26:16.447Z,102071.78
2023-02-17T00:28:43.491Z,102064.81
2023-02-17T00:31:15.074Z,102071.72
2023-02-17T00:33:41.875Z,102066.53
2023-02-17T00:36:12.302Z,102063.88
2023-02-17T00:38:38.910Z,102064.75
2023-02-17T00:41:06.196Z,102067.38
2023-02-17T00:43:32.716Z,102066.47
2023-02-17T00:45:59.083Z,102055.97
2023-02-17T00:48:25.503Z,102055.97
2023-02-17T00:50:51.860Z,102059.50
2023-02-17T00:53:18.321Z,102062.13
2023-02-17T00:55:44.693Z,102055.09
2023-02-17T00:58:11.043Z,102056.88
2023-02-17T01:00:37.458Z,102060.34
2023-02-17T01:03:04.085Z,102052.47
2023-02-17T01:05:30.757Z,102053.34
2023-02-17T01:07:57.156Z,102053.38
2023-02-17T01:10:23.550Z,102051.69
2023-02-17T01:12:49.932Z,102050.81
2023-02-17T01:15:16.297Z,102049.09
2023-02-17T01:17:42.790Z,102053.50
2023-02-17T01:20:09.508Z,102060.47
2023-02-17T01:22:38.824Z,102059.69
2023-02-17T01:25:05.548Z,102070.19
2023-02-17T01:27:32.110Z,102060.59
2023-02-17T01:29:58.520Z,102073.72
2023-02-17T01:32:24.909Z,102068.47
2023-02-17T01:34:51.281Z,102058.88
2023-02-17T01:37:17.672Z,102058.88
2023-02-17T01:39:44.000Z,102063.28
2023-02-17T01:42:17.854Z,102048.44
2023-02-17T01:45:18.299Z,102066.00
2023-02-17T01:47:51.487Z,102065.16
2023-02-17T01:50:21.474Z,102057.41
2023-02-17T01:52:48.513Z,102053.06
2023-02-17T01:55:18.245Z,102066.25
2023-02-17T01:57:47.241Z,102056.78
2023-02-17T02:00:14.596Z,102060.31
2023-02-17T02:02:44.843Z,102062.09
2023-02-17T02:05:11.980Z,102056.03
2023-02-17T02:07:41.457Z,102049.03
2023-02-17T02:10:10.390Z,102040.28
2023-02-17T02:12:40.843Z,102036.00
2023-02-17T02:15:35.107Z,102029.94
2023-02-17T02:18:33.146Z,102020.28
2023-02-17T02:21:37.233Z,102009.00
2023-02-17T02:24:20.229Z,102007.28
2023-02-17T02:26:59.355Z,101998.59
2023-02-17T02:29:49.885Z,101992.47
2023-02-17T02:32:54.964Z,101999.44
2023-02-17T02:35:24.686Z,101992.47
2023-02-17T02:38:15.540Z,102004.78
2023-02-17T02:40:51.446Z,101990.75
2023-02-17T02:43:18.758Z,101987.34
2023-02-17T02:45:45.215Z,101984.72
2023-02-17T02:48:11.639Z,101985.56
2023-02-17T02:50:51.424Z,101989.97
2023-02-17T02:53:31.042Z,101987.34
2023-02-17T02:56:26.043Z,101987.34
2023-02-17T02:59:40.401Z,101979.56
2023-02-17T03:02:14.351Z,101977.91
2023-02-17T03:05:02.293Z,101978.78
2023-02-17T03:07:33.837Z,101980.50
2023-02-17T03:10:01.111Z,101979.63
2023-02-17T03:12:29.995Z,101977.91
2023-02-17T03:15:16.575Z,101986.59
2023-02-17T03:17:42.972Z,101988.38
2023-02-17T03:20:10.680Z,101975.25
2023-02-17T03:22:42.864Z,101978.66
2023-02-17T03:25:09.588Z,101965.59
2023-02-17T03:27:35.971Z,101963.00
2023-02-17T03:30:02.871Z,101950.72
2023-02-17T03:32:29.296Z,101963.84
2023-02-17T03:34:55.659Z,101942.84
2023-02-17T03:37:22.072Z,101923.59
2023-02-17T03:39:48.501Z,101929.75
2023-02-17T03:42:14.855Z,101930.63
2023-02-17T03:44:41.194Z,101934.09
2023-02-17T03:47:07.787Z,101924.41
2023-02-17T03:49:34.211Z,101931.41
2023-02-17T03:52:00.590Z,101936.63
2023-02-17T03:54:27.314Z,101924.34
2023-02-17T03:56:53.898Z,101919.03
2023-02-17T03:59:20.216Z,101926.91
2023-02-17T04:01:46.553Z,101928.56
2023-02-17T04:04:13.128Z,101918.09
2023-02-17T04:06:39.581Z,101910.16
2023-02-17T04:09:06.254Z,101909.25
2023-02-17T04:11:32.646Z,101918.84
2023-02-17T04:13:59.051Z,101923.16
2023-02-17T04:16:25.427Z,101913.59
2023-02-17T04:18:51.822Z,101922.28
2023-02-17T04:21:18.253Z,101930.91
2023-02-17T04:23:44.622Z,101928.28
2023-02-17T04:26:11.338Z,101922.16
2023-02-17T04:28:39.174Z,101921.31
2023-02-17T04:31:05.663Z,101928.22
2023-02-17T04:33:32.221Z,101927.25
2023-02-17T04:36:01.600Z,101919.41
2023-02-17T04:38:32.410Z,101914.13
2023-02-17T04:41:00.230Z,101904.47
2023-02-17T04:43:28.565Z,101889.56
2023-02-17T04:45:54.974Z,101890.41
2023-02-17T04:48:21.760Z,101906.19
2023-02-17T04:50:48.222Z,101907.91
2023-02-17T04:53:14.697Z,101909.59
2023-02-17T04:55:41.934Z,101891.28
2023-02-17T04:58:08.437Z,101894.78
2023-02-17T05:00:35.110Z,101897.41
2023-02-17T05:03:01.736Z,101902.66
2023-02-17T05:05:28.232Z,101904.34
2023-02-17T05:07:54.577Z,101901.72
2023-02-17T05:10:23.916Z,101920.09
2023-02-17T05:12:50.497Z,101925.31
2023-02-17T05:15:17.005Z,101911.38
2023-02-17T05:17:43.446Z,101919.19
2023-02-17T05:20:10.822Z,101927.03
2023-02-17T05:22:37.200Z,101918.28
2023-02-17T05:25:04.555Z,101930.47
2023-02-17T05:27:32.105Z,101928.75
2023-02-17T05:29:58.499Z,101920.84
2023-02-17T05:32:25.163Z,101917.38
2023-02-17T05:34:51.562Z,101921.72
2023-02-17T05:37:17.963Z,101918.28
2023-02-17T05:39:44.378Z,101910.41
2023-02-17T05:42:10.817Z,101906.88
2023-02-17T05:44:37.279Z,101894.66
2023-02-17T05:47:03.828Z,101899.00
2023-02-17T05:49:30.325Z,101899.00
2023-02-17T05:51:56.668Z,101907.78
2023-02-17T05:54:23.005Z,101896.38
2023-02-17T05:56:49.421Z,101893.81
2023-02-17T05:59:15.782Z,101884.19
2023-02-17T06:01:42.341Z,101892.03
2023-02-17T06:04:08.680Z,101884.19
2023-02-17T06:06:35.101Z,101876.31
2023-02-17T06:09:01.425Z,101894.66
2023-02-17T06:11:27.857Z,101889.41
2023-02-17T06:13:54.235Z,101886.81
2023-02-17T06:16:20.663Z,101894.66
2023-02-17T06:18:47.103Z,101878.03
2023-02-17T06:21:13.570Z,101885.81
2023-02-17T06:23:39.934Z,101883.13
2023-02-17T06:26:06.579Z,101887.53
2023-02-17T06:28:35.008Z,101883.13
2023-02-17T06:31:01.679Z,101877.91
2023-02-17T06:33:28.464Z,101877.06
2023-02-17T06:35:54.851Z,101882.16
2023-02-17T06:38:21.236Z,101850.75
2023-02-17T06:40:47.660Z,101848.97
2023-02-17T06:43:14.027Z,101847.22
2023-02-17T06:45:40.742Z,101840.19
2023-02-17T06:48:07.242Z,101839.22
2023-02-17T06:50:33.601Z,101833.13
2023-02-17T06:52:59.982Z,101836.59
2023-02-17T06:55:26.374Z,101849.72
2023-02-17T06:57:52.803Z,101843.56
2023-02-17T07:00:20.028Z,101851.34
2023-02-17T07:02:46.516Z,101847.78
2023-02-17T07:05:13.027Z,101841.69
2023-02-17T07:07:39.571Z,101839.00
2023-02-17T07:10:06.624Z,101838.16
2023-02-17T07:12:33.089Z,101826.75
2023-02-17T07:14:59.481Z,101838.03
2023-02-17T07:17:26.039Z,101845.81
2023-02-17T07:19:53.039Z,101852.78
2023-02-17T07:22:19.682Z,101852.72
2023-02-17T07:24:46.019Z,101867.56
2023-02-17T07:27:12.447Z,101871.97
2023-02-17T07:29:38.833Z,101865.81
2023-02-17T07:32:05.260Z,101868.44
2023-02-17T07:34:31.729Z,101879.63
2023-02-17T07:36:58.083Z,101860.44
2023-02-17T07:39:24.477Z,101843.78
2023-02-17T07:41:51.188Z,101855.03
2023-02-17T07:44:17.575Z,101850.59
2023-02-17T07:46:44.057Z,101850.47
2023-02-17T07:49:10.890Z,101857.44
2023-02-17T07:51:37.231Z,101851.22
2023-02-17T07:54:03.787Z,101858.19
2023-02-17T07:56:30.354Z,101854.66
2023-02-17T07:58:56.738Z,101874.72
2023-02-17T08:01:24.878Z,101871.13
2023-02-17T08:03:52.318Z,101858.78
2023-02-17T08:06:21.739Z,101853.53
2023-02-17T08:09:07.703Z,101854.34
2023-02-17T08:11:53.451Z,101859.53
2023-02-17T08:14:24.832Z,101869.84
2023-02-17T08:16:51.457Z,101865.38
2023-02-17T08:19:18.006Z,101889.81
2023-02-17T08:21:44.596Z,101884.56
2023-02-17T08:24:12.143Z,101882.75
2023-02-17T08:26:39.795Z,101880.88
2023-02-17T08:29:06.183Z,101871.97
2023-02-17T08:31:35.324Z,101891.16
2023-02-17T08:34:04.942Z,101898.97
2023-02-17T08:36:31.426Z,101897.13
2023-02-17T08:38:58.614Z,101908.47
2023-02-17T08:41:32.090Z,101872.53
2023-02-17T08:44:00.968Z,101893.59
2023-02-17T08:46:28.451Z,101910.94
2023-02-17T08:48:56.426Z,101905.53
2023-02-17T08:51:28.003Z,101913.34
2023-02-17T08:53:56.964Z,101930.91
2023-02-17T08:56:24.857Z,101932.53
2023-02-17T08:58:51.900Z,101929.00
2023-02-17T09:01:19.608Z,101936.00
2023-02-17T09:03:47.118Z,101925.47
2023-02-17T09:06:15.184Z,101927.22
2023-02-17T09:08:42.831Z,101916.53
2023-02-17T09:11:09.808Z,101921.91
2023-02-17T09:13:37.304Z,101926.19
2023-02-17T09:16:04.773Z,101937.56
2023-02-17T09:18:31.491Z,101927.78
2023-02-17T09:21:00.443Z,101933.88
2023-02-17T09:23:27.021Z,101929.47
2023-02-17T09:26:10.020Z,101915.34
2023-02-17T09:28:36.971Z,101914.44
2023-02-17T09:31:14.741Z,101915.19
2023-02-17T09:33:41.699Z,101923.00
2023-02-17T09:36:10.772Z,101915.19
2023-02-17T09:38:38.862Z,101895.03
2023-02-17T09:41:14.993Z,101910.81
2023-02-17T09:43:41.674Z,101904.59
2023-02-17T09:46:46.811Z,101923.78
2023-02-17T09:49:24.562Z,101915.97
2023-02-17T09:52:02.815Z,101909.81
2023-02-17T09:54:40.721Z,101901.88
2023-02-17T09:57:12.686Z,101904.34
2023-02-17T09:59:48.701Z,101885.88
2023-02-17T10:02:25.009Z,101907.72
2023-02-17T10:04:54.110Z,101908.56
2023-02-17T10:07:35.033Z,101915.53
2023-02-17T10:10:10.010Z,101905.88
2023-02-17T10:12:43.363Z,101910.16
2023-02-17T10:15:35.411Z,101916.25
2023-02-17T10:18:11.353Z,101921.44
2023-02-17T10:20:58.091Z,101930.19
2023-02-17T10:23:28.148Z,101941.50
2023-02-17T10:26:28.395Z,101949.41
2023-02-17T10:28:57.749Z,101937.91
2023-02-17T10:31:47.666Z,101939.63
2023-02-17T10:34:36.335Z,101947.56
2023-02-17T10:37:32.071Z,101953.66
2023-02-17T10:39:58.716Z,101919.59
2023-02-17T10:42:30.122Z,101929.25
2023-02-17T10:45:19.556Z,101916.19
2023-02-17T10:47:46.464Z,101922.31
2023-02-17T10:50:22.660Z,101936.31
2023-02-17T10:52:50.553Z,101956.47
2023-02-17T10:55:29.462Z,101971.38
2023-02-17T10:58:05.742Z,101946.81
2023-02-17T11:00:32.709Z,101940.72
2023-02-17T11:02:59.121Z,101961.72
2023-02-17T11:05:33.027Z,101952.94
2023-02-17T11:08:06.188Z,101957.28
2023-02-17T11:10:36.820Z,101960.66
2023-02-17T11:13:17.365Z,101945.72
2023-02-17T11:15:46.564Z,101965.75
2023-02-17T11:18:27.395Z,101967.47
2023-02-17T11:21:01.417Z,101980.69
2023-02-17T11:23:27.822Z,101981.53
2023-02-17T11:26:10.947Z,101981.59
2023-02-17T11:28:37.804Z,101973.72
2023-02-17T11:31:05.040Z,101982.50
2023-02-17T11:33:39.844Z,101983.38
2023-02-17T11:36:10.528Z,101981.66
2023-02-17T11:38:39.851Z,101992.19
2023-02-17T11:41:08.151Z,102000.91
2023-02-17T11:43:36.017Z,101987.78
2023-02-17T11:46:13.827Z,101982.50
2023-02-17T11:48:48.161Z,101989.63
2023-02-17T11:51:39.217Z,101994.88
2023-02-17T11:54:39.334Z,101991.44
2023-02-17T11:57:30.077Z,101993.22
2023-02-17T12:00:10.363Z,102015.09
2023-02-17T12:02:42.482Z,101992.34
2023-02-17T12:05:08.890Z,101997.63
2023-02-17T12:08:03.014Z,102013.41
2023-02-17T12:10:48.846Z,102016.13
2023-02-17T12:13:24.231Z,102017.09
2023-02-17T12:15:59.955Z,102018.91
2023-02-17T12:18:47.566Z,102018.06
2023-02-17T12:21:36.068Z,102028.66
2023-02-17T12:24:23.650Z,102027.78
2023-02-17T12:27:00.715Z,102033.03
2023-02-17T12:30:24.433Z,102031.28
2023-02-17T12:33:05.979Z,102017.34
2023-02-17T12:35:52.831Z,102025.22
2023-02-17T12:38:26.655Z,102054.13
2023-02-17T12:41:07.781Z,102060.25
2023-02-17T12:43:36.798Z,102060.28
2023-02-17T12:46:09.800Z,102056.75
2023-02-17T12:48:54.230Z,102066.34
2023-02-17T12:51:30.714Z,102055.91
2023-02-17T12:54:18.453Z,102068.16
2023-02-17T12:57:05.988Z,102067.38
2023-02-17T12:59:35.448Z,102073.56
2023-02-17T13:02:12.340Z,102075.38
2023-02-17T13:04:40.679Z,102064.88
2023-02-17T13:07:28.537Z,102059.59
2023-02-17T13:09:56.739Z,102063.03
2023-02-17T13:12:23.061Z,102054.25
2023-02-17T13:14:57.930Z,102062.00
2023-02-17T13:17:30.420Z,102054.03
2023-02-17T13:20:12.085Z,102053.03
2023-02-17T13:22:40.624Z,102061.59
2023-02-17T13:25:11.237Z,102071.16
2023-02-17T13:27:39.995Z,102065.63
2023-02-17T13:30:18.259Z,102036.63
2023-02-17T13:32:44.936Z,102052.25
2023-02-17T13:35:14.259Z,102049.53
2023-02-17T13:37:43.616Z,102053.84
2023-02-17T13:40:16.008Z,102063.44
2023-02-17T13:42:44.925Z,102065.16
2023-02-17T13:45:25.672Z,102047.56
2023-02-17T13:47:57.574Z,102050.97
2023-02-17T13:50:32.748Z,102051.75
2023-02-17T13:53:00.970Z,102049.94
2023-02-17T13:55:27.770Z,102046.38
2023-02-17T13:57:56.755Z,102042.06
2023-02-17T14:00:28.449Z,102041.06
2023-02-17T14:03:01.834Z,102049.81
2023-02-17T14:05:37.639Z,102050.66
2023-02-17T14:08:07.789Z,102045.34
2023-02-17T14:10:36.114Z,102052.28
2023-02-17T14:13:02.858Z,102049.47
2023-02-17T14:15:30.018Z,102038.13
2023-02-17T14:17:56.940Z,102062.56
2023-02-17T14:20:34.665Z,102063.38
2023-02-17T14:23:04.819Z,102043.97
2023-02-17T14:25:34.241Z,102055.22
2023-02-17T14:28:00.797Z,102054.28
2023-02-17T14:30:36.982Z,102056.91
2023-02-17T14:33:17.900Z,102057.72
2023-02-17T14:36:02.772Z,102040.09
2023-02-17T14:38:36.564Z,102056.66
2023-02-17T14:41:05.275Z,102069.81
2023-02-17T14:43:32.149Z,102096.03
2023-02-17T14:45:58.588Z,102051.28
2023-02-17T14:48:27.748Z,102087.25
2023-02-17T14:50:56.744Z,102076.78
2023-02-17T14:53:27.677Z,102092.56
2023-02-17T14:55:58.096Z,102085.50
2023-02-17T14:58:26.683Z,102091.66
2023-02-17T15:00:53.072Z,102093.38
2023-02-17T15:03:19.455Z,102089.81
2023-02-17T15:05:46.347Z,102099.47
2023-02-17T15:08:16.172Z,102098.63
2023-02-17T15:10:43.412Z,102110.84
2023-02-17T15:13:18.589Z,102100.31
2023-02-17T15:15:47.512Z,102099.41
2023-02-17T15:18:16.157Z,102096.84
2023-02-17T15:20:44.740Z,102100.31
2023-02-17T15:23:17.049Z,102119.69
2023-02-17T15:25:43.750Z,102136.31
2023-02-17T15:28:18.711Z,102135.47
2023-02-17T15:30:54.401Z,102128.50
2023-02-17T15:33:23.399Z,102119.69
2023-02-17T15:35:53.424Z,102123.22
2023-02-17T15:38:20.365Z,102118.81
2023-02-17T15:40:46.858Z,102131.97
2023-02-17T15:43:17.049Z,102146.03
2023-02-17T15:45:43.496Z,102149.53
2023-02-17T15:48:24.421Z,102157.41
2023-02-17T15:50:52.221Z,102156.63
2023-02-17T15:53:18.864Z,102130.31
2023-02-17T15:55:46.229Z,102142.69
2023-02-17T15:58:16.610Z,102158.47
2023-02-17T16:00:46.147Z,102159.31
2023-02-17T16:03:13.829Z,102173.38
2023-02-17T16:05:41.814Z,102166.38
2023-02-17T16:08:08.520Z,102157.66
2023-02-17T16:10:36.055Z,102166.41
2023-02-17T16:13:03.208Z,102171.72
2023-02-17T16:15:31.929Z,102180.44
2023-02-17T16:17:58.887Z,102182.25
2023-02-17T16:20:34.522Z,102183.16
2023-02-17T16:23:01.796Z,102177.91
2023-02-17T16:25:29.089Z,102182.31
2023-02-17T16:27:56.175Z,102190.22
2023-02-17T16:30:41.680Z,102197.25
2023-02-17T16:33:10.828Z,102192.84
2023-02-17T16:35:37.845Z,102216.56
2023-02-17T16:38:12.992Z,102203.44
2023-02-17T16:40:47.165Z,102201.63
2023-02-17T16:43:19.445Z,102208.75
2023-02-17T16:45:55.919Z,102205.19
2023-02-17T16:48:28.281Z,102200.00
2023-02-17T16:50:54.980Z,102206.16
2023-02-17T16:53:21.708Z,102215.84
2023-02-17T16:55:48.247Z,102216.75
2023-02-17T16:58:17.244Z,102215.91
2023-02-17T17:00:44.897Z,102214.25
2023-02-17T17:03:11.512Z,102227.47
2023-02-17T17:05:39.426Z,102229.28
2023-02-17T17:08:16.432Z,102224.03
2023-02-17T17:10:46.251Z,102238.94
2023-02-17T17:13:13.637Z,102229.41
2023-02-17T17:15:44.968Z,102235.59
2023-02-17T17:18:19.875Z,102244.38
2023-02-17T17:20:46.419Z,102248.78
2023-02-17T17:23:14.889Z,102253.19
2023-02-17T17:25:43.453Z,102261.06
2023-02-17T17:28:13.916Z,102264.59
2023-02-17T17:30:41.087Z,102275.19
2023-02-17T17:33:07.551Z,102275.25
2023-02-17T17:35:34.148Z,102277.88
2023-02-17T17:38:00.555Z,102277.06
2023-02-17T17:40:48.206Z,102279.69
2023-02-17T17:43:20.170Z,102292.00
2023-02-17T17:45:48.450Z,102301.66
2023-02-17T17:48:16.478Z,102317.47
2023-02-17T17:50:43.364Z,102340.28
2023-02-17T17:53:10.204Z,102338.47
2023-02-17T17:55:36.934Z,102353.38
2023-02-17T17:58:03.384Z,102353.44
2023-02-17T18:00:29.813Z,102352.59
2023-02-17T18:02:56.331Z,102359.53
2023-02-17T18:05:22.732Z,102352.59
2023-02-17T18:07:50.570Z,102357.88
2023-02-17T18:10:17.222Z,102358.78
2023-02-17T18:12:46.064Z,102350.91
2023-02-17T18:15:13.756Z,102348.31
2023-02-17T18:17:42.105Z,102356.22
2023-02-17T18:20:10.806Z,102360.56
2023-02-17T18:22:37.669Z,102358.84
2023-02-17T18:25:04.547Z,102375.50
2023-02-17T18:27:37.990Z,102370.22
2023-02-17T18:30:04.957Z,102373.78
2023-02-17T18:32:31.345Z,102377.31
2023-02-17T18:34:58.450Z,102387.81
2023-02-17T18:37:25.850Z,102376.47
2023-02-17T18:39:52.206Z,102377.31
2023-02-17T18:42:18.605Z,102389.59
2023-02-17T18:44:45.089Z,102384.34
2023-02-17T18:47:11.441Z,102387.81
2023-02-17T18:49:37.825Z,102387.81
2023-02-17T18:52:04.374Z,102405.31
2023-02-17T18:54:30.729Z,102409.69
2023-02-17T18:56:57.164Z,102408.84
2023-02-17T18:59:23.490Z,102406.16
2023-02-17T19:01:49.940Z,102391.34
2023-02-17T19:04:16.496Z,102401.88
2023-02-17T19:06:43.053Z,102398.47
2023-02-17T19:09:09.522Z,102404.63
2023-02-17T19:11:35.949Z,102423.03
2023-02-17T19:14:03.471Z,102423.94
2023-02-17T19:16:31.638Z,102433.53
2023-02-17T19:18:58.801Z,102431.81
2023-02-17T19:21:25.801Z,102424.84
2023-02-17T19:23:52.903Z,102424.88
2023-02-17T19:26:19.924Z,102420.53
2023-02-17T19:28:46.734Z,102423.09
2023-02-17T19:31:16.058Z,102424.88
2023-02-17T19:33:44.320Z,102436.25
2023-02-17T19:36:13.496Z,102431.97
2023-02-17T19:38:40.341Z,102425.91
2023-02-17T19:41:08.907Z,102425.97
2023-02-17T19:43:35.885Z,102430.38
2023-02-17T19:46:02.980Z,102421.66
2023-02-17T19:48:29.522Z,102422.50
2023-02-17T19:51:01.677Z,102434.78
2023-02-17T19:53:28.253Z,102442.69
2023-02-17T19:55:57.249Z,102448.88
2023-02-17T19:58:23.639Z,102448.88
2023-02-17T20:00:49.965Z,102462.03
2023-02-17T20:03:16.309Z,102446.28
2023-02-17T20:05:42.722Z,102448.06
2023-02-17T20:08:09.144Z,102444.59
2023-02-17T20:10:39.404Z,102446.34
2023-02-17T20:13:05.846Z,102455.13
2023-02-17T20:15:32.424Z,102445.56
2023-02-17T20:17:58.805Z,102444.63
2023-02-17T20:20:25.200Z,102451.59
2023-02-17T20:22:51.536Z,102452.50
2023-02-17T20:25:18.017Z,102459.53
2023-02-17T20:27:44.355Z,102457.75
2023-02-17T20:30:11.011Z,102460.38
2023-02-17T20:32:37.325Z,102462.22
2023-02-17T20:35:04.084Z,102463.13
2023-02-17T20:37:30.586Z,102471.84
2023-02-17T20:39:57.165Z,102457.94
2023-02-17T20:42:23.542Z,102458.88
2023-02-17T20:44:50.893Z,102465.91
2023-02-17T20:47:17.378Z,102457.22
2023-02-17T20:49:43.851Z,102459.84
2023-02-17T20:52:10.197Z,102458.97
2023-02-17T20:54:36.546Z,102456.34
2023-02-17T20:57:04.125Z,102462.53
2023-02-17T20:59:30.561Z,102464.34
2023-02-17T21:01:56.949Z,102464.34
2023-02-17T21:04:23.272Z,102458.25
2023-02-17T21:06:50.434Z,102466.97
2023-02-17T21:09:18.518Z,102471.31
2023-02-17T21:11:46.842Z,102471.38
2023-02-17T21:14:14.060Z,102474.84
2023-02-17T21:16:41.030Z,102480.16
2023-02-17T21:19:07.428Z,102481.00
2023-02-17T21:21:33.960Z,102474.91
2023-02-17T21:24:00.370Z,102476.66
2023-02-17T21:26:27.414Z,102473.19
2023-02-17T21:28:53.961Z,102467.03
2023-02-17T21:31:20.574Z,102453.91
2023-02-17T21:33:47.149Z,102462.72
2023-02-17T21:36:16.631Z,102461.84
2023-02-17T21:38:43.448Z,102454.94
2023-02-17T21:41:15.854Z,102454.97
2023-02-17T21:44:01.355Z,102454.97
2023-02-17T21:46:28.378Z,102461.13
2023-02-17T21:48:55.659Z,102465.59
2023-02-17T21:51:22.642Z,102463.00
2023-02-17T21:53:49.092Z,102455.22
2023-02-17T21:56:16.266Z,102465.78
2023-02-17T21:58:47.460Z,102467.59
2023-02-17T22:01:14.344Z,102457.19
2023-02-17T22:03:40.804Z,102463.28
2023-02-17T22:06:14.553Z,102452.78
2023-02-17T22:08:40.888Z,102458.91
2023-02-17T22:11:16.800Z,102452.78
2023-02-17T22:13:43.665Z,102457.19
2023-02-17T22:16:10.842Z,102458.03
2023-02-17T22:18:37.710Z,102464.19
2023-02-17T22:21:08.992Z,102453.75
2023-02-17T22:23:35.620Z,102459.06
2023-02-17T22:26:15.343Z,102456.44
2023-02-17T22:28:42.263Z,102453.81
2023-02-17T22:31:09.027Z,102458.22
2023-02-17T22:33:35.369Z,102459.16
2023-02-17T22:36:05.547Z,102448.69
2023-02-17T22:38:33.433Z,102439.06
2023-02-17T22:41:00.129Z,102440.78
2023-02-17T22:43:26.502Z,102436.47
2023-02-17T22:46:00.719Z,102436.50
2023-02-17T22:48:28.967Z,102433.13
2023-02-17T22:50:55.512Z,102441.03
2023-02-17T22:53:22.009Z,102436.84
2023-02-17T22:55:55.755Z,102442.16
2023-02-17T22:58:23.352Z,102433.38
2023-02-17T23:00:50.348Z,102436.00
2023-02-17T23:03:18.710Z,102423.00
2023-02-17T23:05:46.822Z,102429.09
2023-02-17T23:08:13.538Z,102431.84
2023-02-17T23:10:41.554Z,102431.00
2023-02-17T23:13:08.196Z,102435.34
2023-02-17T23:15:40.866Z,102423.13
2023-02-17T23:18:13.694Z,102429.22
2023-02-17T23:20:43.210Z,102431.84
2023-02-17T23:23:09.709Z,102434.47
2023-02-17T23:25:39.328Z,102427.50
2023-02-17T23:28:06.122Z,102423.84
2023-02-17T23:30:33.541Z,102421.22
2023-02-17T23:33:00.035Z,102421.22
2023-02-17T23:35:26.790Z,102423.84
2023-02-17T23:37:53.357Z,102413.34
2023-02-17T23:40:20.198Z,102426.41
2023-02-17T23:42:46.678Z,102401.03
2023-02-17T23:45:13.168Z,102402.78
2023-02-17T23:47:39.539Z,102403.56
2023-02-17T23:50:06.694Z,102391.31
2023-02-17T23:52:34.155Z,102379.09
2023-02-17T23:55:00.651Z,102379.03
2023-02-17T23:57:27.668Z,102374.69
2023-02-17T23:59:54.060Z,102364.19
